createdAt,value
2019-04-07T00:02:17.444Z,101002.88
2019-04-07T00:04:48.939Z,100997.25
2019-04-07T00:07:20.372Z,100982.66
2019-04-07T00:09:52.766Z,100982.66
2019-04-07T00:12:24.313Z,101001.07
2019-04-07T00:14:56.215Z,101001.16
2019-04-07T00:17:27.791Z,100997.00
2019-04-07T00:19:59.126Z,100993.19
2019-04-07T00:22:30.506Z,100998.11
2019-04-07T00:25:02.564Z,100993.96
2019-04-07T00:27:34.157Z,100993.72
2019-04-07T00:30:07.624Z,100997.06
2019-04-07T00:32:39.072Z,100996.56
2019-04-07T00:35:22.155Z,100990.94
2019-04-07T00:37:44.895Z,100990.56
2019-04-07T00:40:17.470Z,100990.19
2019-04-07T00:42:49.012Z,100984.17
2019-04-07T00:45:20.644Z,100981.96
2019-04-07T00:47:52.617Z,100982.84
2019-04-07T00:50:24.170Z,100982.34
2019-04-07T00:52:55.520Z,100976.47
2019-04-07T00:55:26.986Z,100967.73
2019-04-07T00:57:58.490Z,100973.64
2019-04-07T01:00:31.487Z,100977.18
2019-04-07T01:03:02.988Z,100974.98
2019-04-07T01:05:38.484Z,100976.34
2019-04-07T01:08:07.501Z,100976.48
2019-04-07T01:10:38.939Z,100975.00
2019-04-07T01:13:26.225Z,100972.16
2019-04-07T01:15:58.040Z,100975.00
2019-04-07T01:18:33.839Z,100969.61
2019-04-07T01:21:05.599Z,100971.33
2019-04-07T01:23:37.047Z,100969.14
2019-04-07T01:26:08.638Z,100969.02
2019-04-07T01:28:40.668Z,100969.15
2019-04-07T01:31:12.311Z,100968.04
2019-04-07T01:33:44.275Z,100968.04
2019-04-07T01:36:16.097Z,100960.05
2019-04-07T01:38:47.692Z,100965.11
2019-04-07T01:41:32.908Z,100969.49
2019-04-07T01:44:06.060Z,100962.88
2019-04-07T01:46:41.788Z,100965.11
2019-04-07T01:49:18.394Z,100957.62
2019-04-07T01:51:54.351Z,100964.84
2019-04-07T01:54:42.092Z,100961.91
2019-04-07T01:57:21.377Z,100962.28
2019-04-07T01:59:57.327Z,100966.45
2019-04-07T02:02:40.118Z,100966.94
2019-04-07T02:05:28.778Z,100961.67
2019-04-07T02:08:05.477Z,100960.92
2019-04-07T02:10:41.612Z,100968.28
2019-04-07T02:13:29.633Z,100968.41
2019-04-07T02:16:09.189Z,100967.17
2019-04-07T02:18:42.304Z,100970.61
2019-04-07T02:21:15.260Z,100975.02
2019-04-07T02:23:51.000Z,100962.65
2019-04-07T02:26:39.126Z,100964.60
2019-04-07T02:29:12.626Z,100964.60
2019-04-07T02:31:48.430Z,100959.34
2019-04-07T02:34:22.006Z,100965.11
2019-04-07T02:36:55.860Z,100965.20
2019-04-07T02:39:35.209Z,100965.45
2019-04-07T02:42:11.333Z,100958.36
2019-04-07T02:45:01.399Z,100961.66
2019-04-07T02:47:37.678Z,100967.53
2019-04-07T02:50:27.834Z,100963.48
2019-04-07T02:53:19.513Z,100967.66
2019-04-07T02:56:10.672Z,100963.84
2019-04-07T02:58:47.636Z,100962.73
2019-04-07T03:01:33.051Z,100963.84
2019-04-07T03:04:12.748Z,100968.20
2019-04-07T03:07:02.709Z,100965.67
2019-04-07T03:09:45.981Z,100967.86
2019-04-07T03:12:19.143Z,100964.70
2019-04-07T03:15:11.086Z,100970.23
2019-04-07T03:18:00.710Z,100966.61
2019-04-07T03:20:39.195Z,100969.72
2019-04-07T03:23:16.158Z,100968.00
2019-04-07T03:25:55.314Z,100971.30
2019-04-07T03:28:34.681Z,100973.88
2019-04-07T03:31:12.635Z,100964.58
2019-04-07T03:33:56.457Z,100962.86
2019-04-07T03:37:03.009Z,100968.87
2019-04-07T03:39:10.777Z,100970.97
2019-04-07T03:41:44.032Z,100978.23
2019-04-07T03:44:18.534Z,100981.52
2019-04-07T03:47:01.444Z,100981.17
2019-04-07T03:49:50.874Z,100981.64
2019-04-07T03:52:29.739Z,100980.93
2019-04-07T03:55:02.752Z,100979.06
2019-04-07T03:57:45.149Z,100974.64
2019-04-07T04:00:50.364Z,100976.23
2019-04-07T04:03:26.540Z,100980.05
2019-04-07T04:06:16.223Z,100976.75
2019-04-07T04:08:49.226Z,100985.34
2019-04-07T04:11:23.501Z,100982.87
2019-04-07T04:14:02.967Z,100989.86
2019-04-07T04:16:36.167Z,100988.05
2019-04-07T04:19:08.274Z,100986.03
2019-04-07T04:21:40.405Z,100991.16
2019-04-07T04:24:12.273Z,100988.62
2019-04-07T04:26:44.131Z,100988.98
2019-04-07T04:29:15.696Z,100979.83
2019-04-07T04:31:47.472Z,100984.92
2019-04-07T04:34:20.521Z,100984.92
2019-04-07T04:36:53.050Z,100990.70
2019-04-07T04:39:25.316Z,100986.69
2019-04-07T04:41:57.631Z,100992.48
2019-04-07T04:44:29.506Z,100996.27
2019-04-07T04:47:01.623Z,100995.09
2019-04-07T04:49:35.132Z,100991.00
2019-04-07T04:52:07.141Z,100991.72
2019-04-07T04:54:38.896Z,100995.48
2019-04-07T04:57:11.146Z,100997.69
2019-04-07T04:59:42.633Z,100997.11
2019-04-07T05:02:14.021Z,100996.59
2019-04-07T05:04:45.874Z,101001.98
2019-04-07T05:07:17.376Z,101002.95
2019-04-07T05:09:52.860Z,100998.31
2019-04-07T05:12:22.027Z,101000.97
2019-04-07T05:14:53.668Z,101005.81
2019-04-07T05:17:26.067Z,101003.09
2019-04-07T05:19:57.722Z,100996.23
2019-04-07T05:22:29.253Z,101000.30
2019-04-07T05:25:00.967Z,101005.69
2019-04-07T05:27:32.729Z,101005.69
2019-04-07T05:30:07.832Z,101000.33
2019-04-07T05:32:39.971Z,101004.73
2019-04-07T05:35:12.074Z,101005.20
2019-04-07T05:37:43.636Z,101003.92
2019-04-07T05:40:16.602Z,101008.88
2019-04-07T05:42:48.349Z,101011.83
2019-04-07T05:45:20.448Z,101004.70
2019-04-07T05:47:53.365Z,101008.88
2019-04-07T05:50:28.067Z,101009.89
2019-04-07T05:52:58.735Z,101012.52
2019-04-07T05:55:30.489Z,101012.81
2019-04-07T05:58:05.131Z,101005.38
2019-04-07T06:00:35.297Z,101019.13
2019-04-07T06:03:08.481Z,101010.17
2019-04-07T06:05:40.079Z,101010.01
2019-04-07T06:08:22.671Z,101015.04
2019-04-07T06:10:45.908Z,101011.45
2019-04-07T06:13:17.688Z,101016.72
2019-04-07T06:15:51.130Z,101014.91
2019-04-07T06:18:22.897Z,101005.80
2019-04-07T06:20:54.526Z,101014.06
2019-04-07T06:23:29.377Z,101003.90
2019-04-07T06:26:00.243Z,101014.91
2019-04-07T06:28:31.731Z,101015.73
2019-04-07T06:31:03.275Z,101009.28
2019-04-07T06:33:38.095Z,101007.17
2019-04-07T06:36:08.463Z,101005.80
2019-04-07T06:38:43.262Z,101015.22
2019-04-07T06:41:13.801Z,101017.93
2019-04-07T06:43:45.383Z,101014.75
2019-04-07T06:46:22.649Z,101018.35
2019-04-07T06:49:13.957Z,101015.48
2019-04-07T06:51:47.930Z,101022.37
2019-04-07T06:54:37.722Z,101021.86
2019-04-07T06:57:23.343Z,101010.82
2019-04-07T07:00:12.845Z,101017.66
2019-04-07T07:02:46.143Z,101011.19
2019-04-07T07:05:28.918Z,101009.05
2019-04-07T07:08:21.098Z,101003.83
2019-04-07T07:10:59.361Z,100995.12
2019-04-07T07:13:36.690Z,100999.27
2019-04-07T07:16:14.640Z,100990.94
2019-04-07T07:18:45.891Z,100995.52
2019-04-07T07:21:28.702Z,100996.33
2019-04-07T07:24:00.245Z,100994.62
2019-04-07T07:26:35.110Z,100992.76
2019-04-07T07:29:06.369Z,100980.65
2019-04-07T07:31:37.953Z,100980.65
2019-04-07T07:34:10.822Z,100978.08
2019-04-07T07:36:42.847Z,100983.59
2019-04-07T07:39:14.596Z,100975.92
2019-04-07T07:41:46.303Z,100972.33
2019-04-07T07:44:17.830Z,100976.25
2019-04-07T07:46:50.672Z,100973.69
2019-04-07T07:49:22.351Z,100985.42
2019-04-07T07:51:54.003Z,100980.05
2019-04-07T07:54:28.347Z,100990.02
2019-04-07T07:56:59.070Z,100981.97
2019-04-07T07:59:34.604Z,100950.61
2019-04-07T08:02:11.029Z,100985.23
2019-04-07T08:04:43.515Z,100986.34
2019-04-07T08:07:16.545Z,100989.49
2019-04-07T08:09:48.178Z,100994.28
2019-04-07T08:12:20.577Z,100989.13
2019-04-07T08:14:55.236Z,100984.14
2019-04-07T08:17:25.911Z,100965.37
2019-04-07T08:19:57.788Z,100973.83
2019-04-07T08:22:33.752Z,100971.61
2019-04-07T08:25:02.523Z,100971.03
2019-04-07T08:27:34.428Z,100971.52
2019-04-07T08:30:12.514Z,100956.05
2019-04-07T08:32:42.220Z,100956.20
2019-04-07T08:35:14.348Z,100958.89
2019-04-07T08:37:47.619Z,100954.64
2019-04-07T08:40:19.928Z,100944.49
2019-04-07T08:42:52.149Z,100951.06
2019-04-07T08:45:23.563Z,100949.83
2019-04-07T08:47:55.436Z,100929.38
2019-04-07T08:50:28.503Z,100950.50
2019-04-07T08:53:00.219Z,100945.16
2019-04-07T08:55:31.696Z,100946.25
2019-04-07T08:58:05.305Z,100938.37
2019-04-07T09:00:40.449Z,100939.95
2019-04-07T09:03:15.130Z,100933.62
2019-04-07T09:05:45.519Z,100935.91
2019-04-07T09:08:17.870Z,100937.38
2019-04-07T09:11:10.058Z,100921.10
2019-04-07T09:13:44.054Z,100910.31
2019-04-07T09:16:20.080Z,100895.69
2019-04-07T09:19:09.493Z,100918.09
2019-04-07T09:21:51.632Z,100909.30
2019-04-07T09:24:36.085Z,100912.27
2019-04-07T09:27:12.036Z,100908.24
2019-04-07T09:29:58.985Z,100903.00
2019-04-07T09:32:38.379Z,100901.03
2019-04-07T09:35:15.514Z,100901.45
2019-04-07T09:37:53.357Z,100904.91
2019-04-07T09:40:28.855Z,100904.95
2019-04-07T09:43:01.944Z,100892.67
2019-04-07T09:45:38.574Z,100904.78
2019-04-07T09:48:10.883Z,100911.53
2019-04-07T09:50:55.161Z,100896.55
2019-04-07T09:53:28.639Z,100887.73
2019-04-07T09:56:08.739Z,100895.98
2019-04-07T09:58:55.889Z,100872.42
2019-04-07T10:01:35.319Z,100887.68
2019-04-07T10:04:15.242Z,100886.21
2019-04-07T10:07:04.830Z,100890.77
2019-04-07T10:10:04.751Z,100872.45
2019-04-07T10:12:44.930Z,100865.92
2019-04-07T10:15:36.202Z,100858.53
2019-04-07T10:18:13.117Z,100861.11
2019-04-07T10:20:46.721Z,100858.02
2019-04-07T10:23:25.410Z,100851.21
2019-04-07T10:26:15.693Z,100854.41
2019-04-07T10:28:51.683Z,100855.83
2019-04-07T10:31:24.620Z,100860.07
2019-04-07T10:34:16.280Z,100844.02
2019-04-07T10:36:55.752Z,100837.94
2019-04-07T10:39:28.856Z,100845.27
2019-04-07T10:42:19.006Z,100849.25
2019-04-07T10:45:04.730Z,100839.11
2019-04-07T10:47:41.191Z,100842.97
2019-04-07T10:50:32.544Z,100840.94
2019-04-07T10:53:06.299Z,100853.25
2019-04-07T10:55:43.050Z,100835.17
2019-04-07T10:58:32.357Z,100838.55
2019-04-07T11:01:10.008Z,100823.11
2019-04-07T11:03:59.835Z,100827.30
2019-04-07T11:06:42.150Z,100819.59
2019-04-07T11:09:18.170Z,100813.63
2019-04-07T11:12:07.413Z,100817.68
2019-04-07T11:14:44.443Z,100811.95
2019-04-07T11:17:25.392Z,100804.01
2019-04-07T11:20:04.291Z,100809.65
2019-04-07T11:22:53.099Z,100809.02
2019-04-07T11:25:46.147Z,100804.84
2019-04-07T11:28:27.872Z,100813.86
2019-04-07T11:31:00.583Z,100802.69
2019-04-07T11:33:38.038Z,100795.10
2019-04-07T11:36:21.515Z,100792.30
2019-04-07T11:39:00.545Z,100785.87
2019-04-07T11:41:50.286Z,100779.05
2019-04-07T11:44:32.363Z,100783.61
2019-04-07T11:47:07.181Z,100779.98
2019-04-07T11:49:53.985Z,100778.27
2019-04-07T11:52:29.095Z,100771.21
2019-04-07T11:55:18.753Z,100779.91
2019-04-07T11:58:09.713Z,100765.72
2019-04-07T12:00:41.966Z,100756.39
2019-04-07T12:03:33.376Z,100756.84
2019-04-07T12:06:07.585Z,100749.75
2019-04-07T12:08:51.473Z,100753.48
2019-04-07T12:11:31.045Z,100746.80
2019-04-07T12:14:20.601Z,100747.88
2019-04-07T12:16:55.044Z,100740.59
2019-04-07T12:19:34.229Z,100740.05
2019-04-07T12:22:12.811Z,100746.59
2019-04-07T12:24:45.714Z,100741.86
2019-04-07T12:27:31.480Z,100742.25
2019-04-07T12:30:22.537Z,100735.92
2019-04-07T12:33:12.168Z,100730.35
2019-04-07T12:35:55.144Z,100724.31
2019-04-07T12:38:30.679Z,100728.43
2019-04-07T12:41:15.079Z,100724.91
2019-04-07T12:43:49.562Z,100728.27
2019-04-07T12:46:29.110Z,100728.04
2019-04-07T12:49:10.187Z,100722.05
2019-04-07T12:51:55.983Z,100712.49
2019-04-07T12:54:44.884Z,100701.75
2019-04-07T12:57:35.428Z,100701.49
2019-04-07T13:00:27.723Z,100700.63
2019-04-07T13:03:11.679Z,100708.14
2019-04-07T13:06:01.909Z,100706.66
2019-04-07T13:08:45.832Z,100695.38
2019-04-07T13:11:31.986Z,100698.48
2019-04-07T13:14:05.040Z,100693.39
2019-04-07T13:16:52.879Z,100689.77
2019-04-07T13:19:29.835Z,100689.69
2019-04-07T13:22:20.280Z,100693.63
2019-04-07T13:24:58.189Z,100693.78
2019-04-07T13:27:42.774Z,100686.73
2019-04-07T13:30:17.074Z,100685.31
2019-04-07T13:32:56.672Z,100689.37
2019-04-07T13:35:29.481Z,100683.03
2019-04-07T13:38:03.226Z,100681.98
2019-04-07T13:40:36.244Z,100689.32
2019-04-07T13:43:12.312Z,100689.61
2019-04-07T13:46:04.102Z,100686.72
2019-04-07T13:48:38.912Z,100696.76
2019-04-07T13:51:29.586Z,100680.09
2019-04-07T13:54:16.208Z,100685.59
2019-04-07T13:56:52.122Z,100689.97
2019-04-07T13:59:44.071Z,100686.72
2019-04-07T14:02:35.656Z,100683.69
2019-04-07T14:05:11.267Z,100687.23
2019-04-07T14:07:51.767Z,100688.23
2019-04-07T14:10:25.623Z,100685.23
2019-04-07T14:13:07.910Z,100688.47
2019-04-07T14:15:46.426Z,100687.83
2019-04-07T14:18:35.571Z,100690.58
2019-04-07T14:21:34.933Z,100687.38
2019-04-07T14:24:28.315Z,100685.85
2019-04-07T14:27:04.360Z,100685.34
2019-04-07T14:29:53.059Z,100680.62
2019-04-07T14:32:45.402Z,100679.31
2019-04-07T14:35:43.095Z,100674.74
2019-04-07T14:38:16.913Z,100681.23
2019-04-07T14:40:50.033Z,100678.94
2019-04-07T14:43:29.906Z,100681.45
2019-04-07T14:46:21.134Z,100684.63
2019-04-07T14:49:01.129Z,100675.33
2019-04-07T14:51:45.083Z,100680.52
2019-04-07T14:54:36.447Z,100674.68
2019-04-07T14:57:10.454Z,100673.58
2019-04-07T14:59:43.844Z,100680.96
2019-04-07T15:02:17.100Z,100683.20
2019-04-07T15:04:50.951Z,100678.26
2019-04-07T15:07:26.375Z,100689.75
2019-04-07T15:09:59.835Z,100684.69
2019-04-07T15:12:48.562Z,100683.54
2019-04-07T15:15:21.457Z,100689.58
2019-04-07T15:17:55.804Z,100682.45
2019-04-07T15:20:28.139Z,100689.42
2019-04-07T15:23:00.580Z,100689.53
2019-04-07T15:25:32.842Z,100695.95
2019-04-07T15:28:04.457Z,100693.34
2019-04-07T15:30:36.299Z,100691.37
2019-04-07T15:33:07.843Z,100696.16
2019-04-07T15:35:39.561Z,100694.57
2019-04-07T15:38:11.437Z,100694.48
2019-04-07T15:40:44.020Z,100691.91
2019-04-07T15:43:15.851Z,100697.33
2019-04-07T15:45:48.635Z,100696.77
2019-04-07T15:48:21.406Z,100693.66
2019-04-07T15:50:54.083Z,100699.73
2019-04-07T15:53:25.683Z,100700.37
2019-04-07T15:56:03.043Z,100700.70
2019-04-07T15:58:31.000Z,100701.28
2019-04-07T16:01:05.908Z,100704.34
2019-04-07T16:03:35.653Z,100699.69
2019-04-07T16:06:07.804Z,100702.59
2019-04-07T16:08:40.437Z,100706.91
2019-04-07T16:11:12.661Z,100708.62
2019-04-07T16:13:44.376Z,100710.03
2019-04-07T16:16:15.940Z,100712.14
2019-04-07T16:18:47.413Z,100713.27
2019-04-07T16:21:19.527Z,100714.84
2019-04-07T16:23:53.351Z,100711.79
2019-04-07T16:26:26.100Z,100716.01
2019-04-07T16:28:57.941Z,100720.28
2019-04-07T16:31:31.182Z,100718.41
2019-04-07T16:34:07.531Z,100714.51
2019-04-07T16:36:38.018Z,100724.00
2019-04-07T16:39:09.980Z,100722.50
2019-04-07T16:41:44.232Z,100727.55
2019-04-07T16:44:14.596Z,100727.31
2019-04-07T16:46:45.966Z,100726.67
2019-04-07T16:49:18.986Z,100727.69
2019-04-07T16:51:51.471Z,100729.39
2019-04-07T16:54:23.402Z,100736.48
2019-04-07T16:56:57.143Z,100736.48
2019-04-07T16:59:28.288Z,100736.57
2019-04-07T17:02:00.214Z,100734.30
2019-04-07T17:04:32.238Z,100741.60
2019-04-07T17:07:05.462Z,100750.28
2019-04-07T17:09:36.857Z,100758.30
2019-04-07T17:12:11.129Z,100760.50
2019-04-07T17:14:41.328Z,100757.83
2019-04-07T17:17:15.616Z,100759.13
2019-04-07T17:19:45.949Z,100755.50
2019-04-07T17:22:18.136Z,100754.75
2019-04-07T17:24:50.680Z,100758.50
2019-04-07T17:27:22.934Z,100762.69
2019-04-07T17:29:55.447Z,100761.92
2019-04-07T17:32:27.429Z,100763.91
2019-04-07T17:34:59.733Z,100755.21
2019-04-07T17:37:31.801Z,100766.16
2019-04-07T17:40:08.672Z,100763.81
2019-04-07T17:42:39.822Z,100764.52
2019-04-07T17:45:29.731Z,100767.39
2019-04-07T17:48:07.137Z,100763.19
2019-04-07T17:50:44.203Z,100765.83
2019-04-07T17:53:19.243Z,100765.98
2019-04-07T17:55:59.806Z,100760.75
2019-04-07T17:58:36.758Z,100761.63
2019-04-07T18:01:24.801Z,100767.58
2019-04-07T18:04:17.259Z,100761.92
2019-04-07T18:07:07.869Z,100771.45
2019-04-07T18:09:51.437Z,100763.97
2019-04-07T18:12:27.668Z,100768.75
2019-04-07T18:15:17.947Z,100770.84
2019-04-07T18:17:53.216Z,100765.38
2019-04-07T18:20:40.472Z,100769.32
2019-04-07T18:23:13.371Z,100763.55
2019-04-07T18:25:46.352Z,100769.38
2019-04-07T18:28:23.749Z,100768.66
2019-04-07T18:30:57.358Z,100765.09
2019-04-07T18:33:33.570Z,100763.91
2019-04-07T18:36:19.175Z,100770.58
2019-04-07T18:38:56.003Z,100768.19
2019-04-07T18:41:47.465Z,100770.23
2019-04-07T18:44:30.564Z,100768.69
2019-04-07T18:47:07.977Z,100764.08
2019-04-07T18:49:53.813Z,100763.42
2019-04-07T18:52:43.420Z,100757.10
2019-04-07T18:55:27.311Z,100760.86
2019-04-07T18:58:00.742Z,100762.89
2019-04-07T19:00:37.168Z,100763.27
2019-04-07T19:03:10.604Z,100756.43
2019-04-07T19:05:43.766Z,100758.48
2019-04-07T19:08:20.752Z,100757.14
2019-04-07T19:11:16.773Z,100756.27
2019-04-07T19:14:21.834Z,100754.58
2019-04-07T19:16:36.186Z,100756.10
2019-04-07T19:19:14.711Z,100756.25
2019-04-07T19:22:04.578Z,100756.77
2019-04-07T19:24:37.902Z,100753.20
2019-04-07T19:27:19.598Z,100749.27
2019-04-07T19:29:57.378Z,100752.53
2019-04-07T19:32:31.338Z,100742.80
2019-04-07T19:35:21.765Z,100746.88
2019-04-07T19:38:14.218Z,100748.23
2019-04-07T19:41:00.199Z,100752.53
2019-04-07T19:43:33.071Z,100746.88
2019-04-07T19:46:15.795Z,100746.55
2019-04-07T19:48:49.148Z,100752.67
2019-04-07T19:51:34.094Z,100753.51
2019-04-07T19:54:07.382Z,100755.22
2019-04-07T19:56:46.629Z,100757.11
2019-04-07T19:59:21.719Z,100751.98
2019-04-07T20:02:03.923Z,100753.64
2019-04-07T20:04:44.168Z,100749.57
2019-04-07T20:07:21.073Z,100751.60
2019-04-07T20:10:06.721Z,100754.62
2019-04-07T20:12:45.160Z,100753.83
2019-04-07T20:15:29.617Z,100752.97
2019-04-07T20:18:07.129Z,100755.37
2019-04-07T20:20:50.640Z,100756.81
2019-04-07T20:23:28.522Z,100754.23
2019-04-07T20:25:59.444Z,100755.75
2019-04-07T20:28:35.875Z,100754.55
2019-04-07T20:31:09.114Z,100755.76
2019-04-07T20:33:45.713Z,100753.20
2019-04-07T20:36:24.153Z,100757.61
2019-04-07T20:39:00.388Z,100752.53
2019-04-07T20:41:47.886Z,100755.73
2019-04-07T20:44:25.816Z,100758.45
2019-04-07T20:47:05.147Z,100747.89
2019-04-07T20:49:42.470Z,100748.87
2019-04-07T20:52:17.784Z,100748.20
2019-04-07T20:55:08.487Z,100748.18
2019-04-07T20:58:13.112Z,100741.69
2019-04-07T21:00:57.714Z,100737.72
2019-04-07T21:03:38.253Z,100742.36
2019-04-07T21:06:11.218Z,100743.52
2019-04-07T21:08:56.103Z,100745.02
2019-04-07T21:11:29.148Z,100738.91
2019-04-07T21:14:05.937Z,100742.44
2019-04-07T21:16:57.889Z,100737.52
2019-04-07T21:19:35.473Z,100749.25
2019-04-07T21:22:16.954Z,100742.06
2019-04-07T21:24:58.734Z,100742.37
2019-04-07T21:27:38.678Z,100743.00
2019-04-07T21:30:29.072Z,100746.42
2019-04-07T21:33:02.451Z,100740.91
2019-04-07T21:35:51.507Z,100745.13
2019-04-07T21:38:29.820Z,100744.91
2019-04-07T21:41:18.557Z,100734.80
2019-04-07T21:44:01.632Z,100743.01
2019-04-07T21:46:35.074Z,100742.80
2019-04-07T21:49:08.178Z,100737.34
2019-04-07T21:51:57.431Z,100744.16
2019-04-07T21:54:39.238Z,100741.03
2019-04-07T21:57:19.296Z,100746.66
2019-04-07T21:59:56.231Z,100747.09
2019-04-07T22:02:47.907Z,100748.05
2019-04-07T22:05:37.065Z,100744.98
2019-04-07T22:08:14.569Z,100742.13
2019-04-07T22:10:43.227Z,100738.19
2019-04-07T22:13:15.396Z,100735.33
2019-04-07T22:15:51.873Z,100735.68
2019-04-07T22:18:19.983Z,100740.78
2019-04-07T22:20:54.461Z,100738.48
2019-04-07T22:23:25.108Z,100735.23
2019-04-07T22:25:57.043Z,100728.08
2019-04-07T22:28:30.009Z,100726.49
2019-04-07T22:31:01.562Z,100726.80
2019-04-07T22:33:33.750Z,100720.17
2019-04-07T22:36:05.910Z,100716.39
2019-04-07T22:38:37.687Z,100716.39
2019-04-07T22:41:10.088Z,100711.66
2019-04-07T22:43:41.589Z,100712.27
2019-04-07T22:46:21.318Z,100714.27
2019-04-07T22:48:46.059Z,100713.44
2019-04-07T22:51:17.499Z,100706.89
2019-04-07T22:53:49.652Z,100708.59
2019-04-07T22:56:20.965Z,100710.62
2019-04-07T22:58:52.473Z,100708.00
2019-04-07T23:01:23.785Z,100713.55
2019-04-07T23:03:56.041Z,100708.95
2019-04-07T23:06:27.584Z,100705.70
2019-04-07T23:08:59.431Z,100698.56
2019-04-07T23:11:30.970Z,100707.91
2019-04-07T23:14:03.094Z,100699.20
2019-04-07T23:16:34.510Z,100703.41
2019-04-07T23:19:06.729Z,100704.22
2019-04-07T23:21:38.051Z,100698.20
2019-04-07T23:24:09.704Z,100693.94
2019-04-07T23:26:41.202Z,100704.73
2019-04-07T23:29:12.651Z,100706.78
2019-04-07T23:31:44.147Z,100704.66
2019-04-07T23:34:15.451Z,100707.19
2019-04-07T23:36:46.701Z,100708.00
2019-04-07T23:39:18.199Z,100702.34
2019-04-07T23:41:49.518Z,100698.95
2019-04-07T23:44:21.401Z,100700.25
2019-04-07T23:46:53.087Z,100692.77
2019-04-07T23:49:24.600Z,100695.67
2019-04-07T23:51:55.923Z,100689.88
2019-04-07T23:54:27.301Z,100685.14
2019-04-07T23:56:58.599Z,100688.85
2019-04-07T23:59:30.524Z,100679.65
